sensor_id;sensor_type;location;lat;lon;timestamp;P1;durP1;ratioP1;P2;durP2;ratioP2
38240;SDS011;24037;49.536;8.500;2023-06-10T00:00:01;6.78;;;6.07;;
38240;SDS011;24037;49.536;8.500;2023-06-10T00:02:38;7.80;;;6.45;;
38240;SDS011;24037;49.536;8.500;2023-06-10T00:05:07;8.00;;;6.57;;
38240;SDS011;24037;49.536;8.500;2023-06-10T00:07:34;7.90;;;6.75;;
38240;SDS011;24037;49.536;8.500;2023-06-10T00:10:06;8.25;;;6.45;;
38240;SDS011;24037;49.536;8.500;2023-06-10T00:12:33;7.25;;;6.28;;
38240;SDS011;24037;49.536;8.500;2023-06-10T00:15:03;6.57;;;5.57;;
38240;SDS011;24037;49.536;8.500;2023-06-10T00:17:30;6.88;;;5.72;;
38240;SDS011;24037;49.536;8.500;2023-06-10T00:19:58;6.82;;;6.15;;
38240;SDS011;24037;49.536;8.500;2023-06-10T00:22:27;8.60;;;6.40;;
38240;SDS011;24037;49.536;8.500;2023-06-10T00:24:55;6.68;;;5.97;;
38240;SDS011;24037;49.536;8.500;2023-06-10T00:27:24;6.15;;;5.55;;
38240;SDS011;24037;49.536;8.500;2023-06-10T00:29:56;7.80;;;5.68;;
38240;SDS011;24037;49.536;8.500;2023-06-10T00:32:25;7.25;;;6.53;;
38240;SDS011;24037;49.536;8.500;2023-06-10T00:34:51;7.55;;;6.32;;
38240;SDS011;24037;49.536;8.500;2023-06-10T00:37:17;7.15;;;5.72;;
38240;SDS011;24037;49.536;8.500;2023-06-10T00:39:44;8.48;;;6.13;;
38240;SDS011;24037;49.536;8.500;2023-06-10T00:42:10;7.50;;;6.68;;
38240;SDS011;24037;49.536;8.500;2023-06-10T00:44:36;7.30;;;6.60;;
38240;SDS011;24037;49.536;8.500;2023-06-10T00:47:03;8.25;;;6.55;;
38240;SDS011;24037;49.536;8.500;2023-06-10T00:49:29;10.02;;;6.55;;
38240;SDS011;24037;49.536;8.500;2023-06-10T00:51:55;9.70;;;6.80;;
38240;SDS011;24037;49.536;8.500;2023-06-10T00:54:22;7.25;;;6.50;;
38240;SDS011;24037;49.536;8.500;2023-06-10T00:56:51;7.45;;;6.20;;
38240;SDS011;24037;49.536;8.500;2023-06-10T00:59:18;7.28;;;6.32;;
38240;SDS011;24037;49.536;8.500;2023-06-10T01:01:47;9.07;;;7.32;;
38240;SDS011;24037;49.536;8.500;2023-06-10T01:04:14;8.98;;;6.88;;
38240;SDS011;24037;49.536;8.500;2023-06-10T01:09:41;8.77;;;7.88;;
38240;SDS011;24037;49.536;8.500;2023-06-10T01:12:26;8.18;;;7.07;;
38240;SDS011;24037;49.536;8.500;2023-06-10T01:15:17;7.13;;;5.93;;
38240;SDS011;24037;49.536;8.500;2023-06-10T01:20:23;8.23;;;7.43;;
38240;SDS011;24037;49.536;8.500;2023-06-10T01:22:56;8.02;;;6.55;;
38240;SDS011;24037;49.536;8.500;2023-06-10T01:25:23;7.03;;;6.20;;
38240;SDS011;24037;49.536;8.500;2023-06-10T01:33:37;9.40;;;7.32;;
38240;SDS011;24037;49.536;8.500;2023-06-10T01:36:07;7.70;;;6.88;;
38240;SDS011;24037;49.536;8.500;2023-06-10T01:38:45;8.60;;;7.18;;
38240;SDS011;24037;49.536;8.500;2023-06-10T01:41:14;7.95;;;7.15;;
38240;SDS011;24037;49.536;8.500;2023-06-10T01:43:43;7.95;;;7.15;;
38240;SDS011;24037;49.536;8.500;2023-06-10T01:46:13;9.35;;;7.07;;
38240;SDS011;24037;49.536;8.500;2023-06-10T01:48:41;12.98;;;7.88;;
38240;SDS011;24037;49.536;8.500;2023-06-10T01:51:08;7.70;;;6.85;;
38240;SDS011;24037;49.536;8.500;2023-06-10T01:53:35;7.93;;;7.07;;
38240;SDS011;24037;49.536;8.500;2023-06-10T01:56:02;8.48;;;7.57;;
38240;SDS011;24037;49.536;8.500;2023-06-10T01:58:28;9.40;;;7.80;;
38240;SDS011;24037;49.536;8.500;2023-06-10T02:00:55;8.40;;;7.60;;
38240;SDS011;24037;49.536;8.500;2023-06-10T02:03:21;8.65;;;7.75;;
38240;SDS011;24037;49.536;8.500;2023-06-10T02:05:47;11.75;;;7.93;;
38240;SDS011;24037;49.536;8.500;2023-06-10T02:08:15;8.48;;;7.63;;
38240;SDS011;24037;49.536;8.500;2023-06-10T02:10:44;8.10;;;7.28;;
38240;SDS011;24037;49.536;8.500;2023-06-10T02:13:11;9.75;;;7.70;;
38240;SDS011;24037;49.536;8.500;2023-06-10T02:15:37;7.65;;;6.95;;
38240;SDS011;24037;49.536;8.500;2023-06-10T02:18:03;9.15;;;8.30;;
38240;SDS011;24037;49.536;8.500;2023-06-10T02:20:29;9.18;;;8.27;;
38240;SDS011;24037;49.536;8.500;2023-06-10T02:22:55;8.50;;;7.28;;
38240;SDS011;24037;49.536;8.500;2023-06-10T02:25:22;10.07;;;8.18;;
38240;SDS011;24037;49.536;8.500;2023-06-10T02:27:49;11.18;;;8.32;;
38240;SDS011;24037;49.536;8.500;2023-06-10T02:30:18;8.85;;;7.32;;
38240;SDS011;24037;49.536;8.500;2023-06-10T02:32:44;9.60;;;8.27;;
38240;SDS011;24037;49.536;8.500;2023-06-10T02:35:15;9.45;;;7.72;;
38240;SDS011;24037;49.536;8.500;2023-06-10T02:37:41;9.35;;;7.68;;
38240;SDS011;24037;49.536;8.500;2023-06-10T02:40:08;8.90;;;7.93;;
38240;SDS011;24037;49.536;8.500;2023-06-10T02:42:37;11.10;;;8.30;;
38240;SDS011;24037;49.536;8.500;2023-06-10T02:45:04;9.05;;;7.70;;
38240;SDS011;24037;49.536;8.500;2023-06-10T02:47:37;10.65;;;8.38;;
38240;SDS011;24037;49.536;8.500;2023-06-10T02:50:05;10.63;;;8.63;;
38240;SDS011;24037;49.536;8.500;2023-06-10T02:52:37;9.02;;;8.05;;
38240;SDS011;24037;49.536;8.500;2023-06-10T02:55:04;9.80;;;8.80;;
38240;SDS011;24037;49.536;8.500;2023-06-10T02:57:31;8.50;;;7.60;;
38240;SDS011;24037;49.536;8.500;2023-06-10T02:59:57;8.68;;;7.78;;
38240;SDS011;24037;49.536;8.500;2023-06-10T03:02:25;9.75;;;8.82;;
38240;SDS011;24037;49.536;8.500;2023-06-10T03:04:55;11.48;;;8.45;;
38240;SDS011;24037;49.536;8.500;2023-06-10T03:07:21;9.20;;;8.32;;
38240;SDS011;24037;49.536;8.500;2023-06-10T03:09:50;11.90;;;8.90;;
38240;SDS011;24037;49.536;8.500;2023-06-10T03:12:16;10.38;;;9.35;;
38240;SDS011;24037;49.536;8.500;2023-06-10T03:14:47;10.45;;;8.65;;
38240;SDS011;24037;49.536;8.500;2023-06-10T03:17:15;10.75;;;9.50;;
38240;SDS011;24037;49.536;8.500;2023-06-10T03:19:42;10.30;;;8.63;;
38240;SDS011;24037;49.536;8.500;2023-06-10T03:22:10;10.93;;;9.63;;
38240;SDS011;24037;49.536;8.500;2023-06-10T03:24:58;10.43;;;8.90;;
38240;SDS011;24037;49.536;8.500;2023-06-10T03:27:26;10.20;;;9.18;;
38240;SDS011;24037;49.536;8.500;2023-06-10T03:29:55;10.52;;;9.40;;
38240;SDS011;24037;49.536;8.500;2023-06-10T03:32:22;11.15;;;9.75;;
38240;SDS011;24037;49.536;8.500;2023-06-10T03:34:48;12.10;;;10.57;;
38240;SDS011;24037;49.536;8.500;2023-06-10T03:37:14;13.77;;;9.77;;
38240;SDS011;24037;49.536;8.500;2023-06-10T03:39:43;10.50;;;9.32;;
38240;SDS011;24037;49.536;8.500;2023-06-10T03:42:09;12.90;;;10.00;;
38240;SDS011;24037;49.536;8.500;2023-06-10T03:44:38;9.82;;;8.82;;
38240;SDS011;24037;49.536;8.500;2023-06-10T03:47:08;11.77;;;8.47;;
38240;SDS011;24037;49.536;8.500;2023-06-10T03:49:36;10.68;;;9.35;;
38240;SDS011;24037;49.536;8.500;2023-06-10T03:52:03;13.77;;;9.80;;
38240;SDS011;24037;49.536;8.500;2023-06-10T03:54:30;11.98;;;8.68;;
38240;SDS011;24037;49.536;8.500;2023-06-10T03:56:57;10.75;;;8.95;;
38240;SDS011;24037;49.536;8.500;2023-06-10T03:59:23;10.27;;;8.90;;
38240;SDS011;24037;49.536;8.500;2023-06-10T04:01:52;10.13;;;9.13;;
38240;SDS011;24037;49.536;8.500;2023-06-10T04:04:19;10.73;;;9.50;;
38240;SDS011;24037;49.536;8.500;2023-06-10T04:06:47;11.13;;;8.35;;
38240;SDS011;24037;49.536;8.500;2023-06-10T04:09:14;10.40;;;9.35;;
38240;SDS011;24037;49.536;8.500;2023-06-10T04:11:41;9.63;;;8.65;;
38240;SDS011;24037;49.536;8.500;2023-06-10T04:14:08;11.35;;;9.90;;
38240;SDS011;24037;49.536;8.500;2023-06-10T04:16:36;12.52;;;9.90;;
38240;SDS011;24037;49.536;8.500;2023-06-10T04:19:04;11.85;;;8.95;;
38240;SDS011;24037;49.536;8.500;2023-06-10T04:21:31;9.82;;;8.82;;
38240;SDS011;24037;49.536;8.500;2023-06-10T04:24:01;12.27;;;9.20;;
38240;SDS011;24037;49.536;8.500;2023-06-10T04:26:29;9.80;;;8.40;;
38240;SDS011;24037;49.536;8.500;2023-06-10T04:28:58;8.65;;;7.70;;
38240;SDS011;24037;49.536;8.500;2023-06-10T04:31:24;10.70;;;7.38;;
38240;SDS011;24037;49.536;8.500;2023-06-10T04:33:50;9.25;;;7.65;;
38240;SDS011;24037;49.536;8.500;2023-06-10T04:36:17;8.73;;;7.82;;
38240;SDS011;24037;49.536;8.500;2023-06-10T04:38:43;9.27;;;7.93;;
38240;SDS011;24037;49.536;8.500;2023-06-10T04:41:09;10.23;;;6.93;;
38240;SDS011;24037;49.536;8.500;2023-06-10T04:43:36;9.93;;;7.80;;
38240;SDS011;24037;49.536;8.500;2023-06-10T04:46:04;9.27;;;7.70;;
38240;SDS011;24037;49.536;8.500;2023-06-10T04:48:31;10.27;;;7.57;;
38240;SDS011;24037;49.536;8.500;2023-06-10T04:51:00;7.63;;;6.95;;
38240;SDS011;24037;49.536;8.500;2023-06-10T04:53:26;9.98;;;7.82;;
38240;SDS011;24037;49.536;8.500;2023-06-10T04:55:54;11.15;;;7.60;;
38240;SDS011;24037;49.536;8.500;2023-06-10T04:58:20;8.98;;;8.07;;
38240;SDS011;24037;49.536;8.500;2023-06-10T05:00:46;10.50;;;7.93;;
38240;SDS011;24037;49.536;8.500;2023-06-10T05:03:13;8.57;;;7.20;;
38240;SDS011;24037;49.536;8.500;2023-06-10T05:05:39;8.20;;;7.15;;
38240;SDS011;24037;49.536;8.500;2023-06-10T05:08:05;7.78;;;7.03;;
38240;SDS011;24037;49.536;8.500;2023-06-10T05:10:31;10.45;;;8.70;;
38240;SDS011;24037;49.536;8.500;2023-06-10T05:12:57;9.30;;;6.68;;
38240;SDS011;24037;49.536;8.500;2023-06-10T05:15:24;8.80;;;7.90;;
38240;SDS011;24037;49.536;8.500;2023-06-10T05:17:50;7.40;;;6.70;;
38240;SDS011;24037;49.536;8.500;2023-06-10T05:20:17;9.65;;;6.63;;
38240;SDS011;24037;49.536;8.500;2023-06-10T05:22:44;9.27;;;7.03;;
38240;SDS011;24037;49.536;8.500;2023-06-10T05:25:10;9.68;;;7.20;;
38240;SDS011;24037;49.536;8.500;2023-06-10T05:27:36;8.23;;;6.40;;
38240;SDS011;24037;49.536;8.500;2023-06-10T05:30:03;9.35;;;6.32;;
38240;SDS011;24037;49.536;8.500;2023-06-10T05:32:30;9.23;;;6.45;;
38240;SDS011;24037;49.536;8.500;2023-06-10T05:34:56;7.40;;;6.70;;
38240;SDS011;24037;49.536;8.500;2023-06-10T05:37:22;13.10;;;6.70;;
38240;SDS011;24037;49.536;8.500;2023-06-10T05:39:50;8.88;;;6.55;;
38240;SDS011;24037;49.536;8.500;2023-06-10T05:42:16;6.65;;;5.53;;
38240;SDS011;24037;49.536;8.500;2023-06-10T05:44:42;8.68;;;6.43;;
38240;SDS011;24037;49.536;8.500;2023-06-10T05:47:08;8.73;;;6.57;;
38240;SDS011;24037;49.536;8.500;2023-06-10T05:49:34;9.65;;;6.70;;
38240;SDS011;24037;49.536;8.500;2023-06-10T05:52:01;6.63;;;5.82;;
38240;SDS011;24037;49.536;8.500;2023-06-10T05:54:27;8.32;;;5.65;;
38240;SDS011;24037;49.536;8.500;2023-06-10T05:56:53;8.30;;;6.55;;
38240;SDS011;24037;49.536;8.500;2023-06-10T05:59:19;6.70;;;5.47;;
38240;SDS011;24037;49.536;8.500;2023-06-10T06:01:48;7.43;;;6.10;;
38240;SDS011;24037;49.536;8.500;2023-06-10T06:04:16;7.13;;;6.25;;
38240;SDS011;24037;49.536;8.500;2023-06-10T06:06:42;8.32;;;6.25;;
38240;SDS011;24037;49.536;8.500;2023-06-10T06:09:08;7.35;;;5.88;;
38240;SDS011;24037;49.536;8.500;2023-06-10T06:11:34;9.23;;;5.70;;
38240;SDS011;24037;49.536;8.500;2023-06-10T06:14:01;8.35;;;5.90;;
38240;SDS011;24037;49.536;8.500;2023-06-10T06:16:27;6.95;;;5.60;;
38240;SDS011;24037;49.536;8.500;2023-06-10T06:18:53;6.05;;;5.22;;
38240;SDS011;24037;49.536;8.500;2023-06-10T06:21:19;6.22;;;5.20;;
38240;SDS011;24037;49.536;8.500;2023-06-10T06:23:46;8.98;;;5.40;;
38240;SDS011;24037;49.536;8.500;2023-06-10T06:26:12;10.57;;;6.32;;
38240;SDS011;24037;49.536;8.500;2023-06-10T06:28:38;7.43;;;5.05;;
38240;SDS011;24037;49.536;8.500;2023-06-10T06:31:04;7.28;;;4.82;;
38240;SDS011;24037;49.536;8.500;2023-06-10T06:33:31;5.53;;;4.97;;
38240;SDS011;24037;49.536;8.500;2023-06-10T06:35:58;5.95;;;4.85;;
38240;SDS011;24037;49.536;8.500;2023-06-10T06:38:26;6.97;;;5.32;;
38240;SDS011;24037;49.536;8.500;2023-06-10T06:40:52;6.53;;;5.50;;
38240;SDS011;24037;49.536;8.500;2023-06-10T06:43:19;6.53;;;5.32;;
38240;SDS011;24037;49.536;8.500;2023-06-10T06:45:57;7.50;;;5.50;;
38240;SDS011;24037;49.536;8.500;2023-06-10T06:48:23;5.35;;;4.50;;
38240;SDS011;24037;49.536;8.500;2023-06-10T06:50:50;9.35;;;5.22;;
38240;SDS011;24037;49.536;8.500;2023-06-10T06:53:16;6.30;;;5.10;;
38240;SDS011;24037;49.536;8.500;2023-06-10T06:55:42;4.15;;;3.47;;
38240;SDS011;24037;49.536;8.500;2023-06-10T06:58:08;4.32;;;3.80;;
38240;SDS011;24037;49.536;8.500;2023-06-10T07:00:35;4.22;;;3.22;;
38240;SDS011;24037;49.536;8.500;2023-06-10T07:03:03;5.38;;;3.58;;
38240;SDS011;24037;49.536;8.500;2023-06-10T07:05:29;3.75;;;3.42;;
38240;SDS011;24037;49.536;8.500;2023-06-10T07:07:56;4.22;;;3.83;;
38240;SDS011;24037;49.536;8.500;2023-06-10T07:10:23;3.78;;;3.42;;
38240;SDS011;24037;49.536;8.500;2023-06-10T07:12:50;3.90;;;3.35;;
38240;SDS011;24037;49.536;8.500;2023-06-10T07:15:17;6.03;;;4.15;;
38240;SDS011;24037;49.536;8.500;2023-06-10T07:17:44;5.05;;;3.58;;
38240;SDS011;24037;49.536;8.500;2023-06-10T07:20:10;3.30;;;2.97;;
38240;SDS011;24037;49.536;8.500;2023-06-10T07:22:37;3.22;;;2.92;;
38240;SDS011;24037;49.536;8.500;2023-06-10T07:25:06;5.75;;;3.67;;
38240;SDS011;24037;49.536;8.500;2023-06-10T07:27:32;3.53;;;3.22;;
38240;SDS011;24037;49.536;8.500;2023-06-10T07:29:59;3.97;;;3.00;;
38240;SDS011;24037;49.536;8.500;2023-06-10T07:32:26;3.50;;;3.20;;
38240;SDS011;24037;49.536;8.500;2023-06-10T07:34:52;4.20;;;3.70;;
38240;SDS011;24037;49.536;8.500;2023-06-10T07:37:18;3.95;;;3.55;;
38240;SDS011;24037;49.536;8.500;2023-06-10T07:39:45;4.47;;;3.28;;
38240;SDS011;24037;49.536;8.500;2023-06-10T07:42:11;4.60;;;3.80;;
38240;SDS011;24037;49.536;8.500;2023-06-10T07:44:37;3.80;;;3.17;;
38240;SDS011;24037;49.536;8.500;2023-06-10T07:47:04;4.07;;;3.30;;
38240;SDS011;24037;49.536;8.500;2023-06-10T07:49:30;5.15;;;3.53;;
38240;SDS011;24037;49.536;8.500;2023-06-10T07:51:56;5.05;;;2.85;;
38240;SDS011;24037;49.536;8.500;2023-06-10T07:54:23;3.83;;;3.42;;
38240;SDS011;24037;49.536;8.500;2023-06-10T07:56:49;2.97;;;2.67;;
38240;SDS011;24037;49.536;8.500;2023-06-10T07:59:17;4.20;;;2.97;;
38240;SDS011;24037;49.536;8.500;2023-06-10T08:01:44;5.03;;;3.67;;
38240;SDS011;24037;49.536;8.500;2023-06-10T08:04:10;5.47;;;4.03;;
38240;SDS011;24037;49.536;8.500;2023-06-10T08:06:36;3.88;;;3.35;;
38240;SDS011;24037;49.536;8.500;2023-06-10T08:09:03;4.55;;;3.72;;
38240;SDS011;24037;49.536;8.500;2023-06-10T08:11:29;4.32;;;3.92;;
38240;SDS011;24037;49.536;8.500;2023-06-10T08:13:58;5.35;;;4.00;;
38240;SDS011;24037;49.536;8.500;2023-06-10T08:16:24;5.00;;;3.53;;
38240;SDS011;24037;49.536;8.500;2023-06-10T08:18:50;6.18;;;4.07;;
38240;SDS011;24037;49.536;8.500;2023-06-10T08:21:17;5.45;;;4.22;;
38240;SDS011;24037;49.536;8.500;2023-06-10T08:23:43;3.85;;;3.45;;
38240;SDS011;24037;49.536;8.500;2023-06-10T08:26:09;5.63;;;4.10;;
38240;SDS011;24037;49.536;8.500;2023-06-10T08:28:36;5.40;;;3.97;;
38240;SDS011;24037;49.536;8.500;2023-06-10T08:31:02;6.70;;;4.03;;
38240;SDS011;24037;49.536;8.500;2023-06-10T08:33:28;5.38;;;3.58;;
38240;SDS011;24037;49.536;8.500;2023-06-10T08:35:57;5.28;;;4.22;;
38240;SDS011;24037;49.536;8.500;2023-06-10T08:38:23;5.13;;;3.90;;
38240;SDS011;24037;49.536;8.500;2023-06-10T08:40:50;5.20;;;4.70;;
38240;SDS011;24037;49.536;8.500;2023-06-10T08:43:31;6.80;;;4.57;;
38240;SDS011;24037;49.536;8.500;2023-06-10T08:46:00;5.82;;;4.43;;
38240;SDS011;24037;49.536;8.500;2023-06-10T08:48:30;5.55;;;4.45;;
38240;SDS011;24037;49.536;8.500;2023-06-10T08:50:59;5.13;;;4.47;;
38240;SDS011;24037;49.536;8.500;2023-06-10T08:53:29;5.38;;;4.88;;
38240;SDS011;24037;49.536;8.500;2023-06-10T08:55:57;5.78;;;4.60;;
38240;SDS011;24037;49.536;8.500;2023-06-10T09:00:52;5.53;;;4.63;;
38240;SDS011;24037;49.536;8.500;2023-06-10T09:03:19;5.47;;;4.82;;
38240;SDS011;24037;49.536;8.500;2023-06-10T09:05:47;5.80;;;5.22;;
38240;SDS011;24037;49.536;8.500;2023-06-10T09:08:14;5.95;;;4.50;;
38240;SDS011;24037;49.536;8.500;2023-06-10T09:10:45;6.07;;;4.22;;
38240;SDS011;24037;49.536;8.500;2023-06-10T09:13:11;5.78;;;4.75;;
38240;SDS011;24037;49.536;8.500;2023-06-10T09:15:41;5.30;;;4.43;;
38240;SDS011;24037;49.536;8.500;2023-06-10T09:18:07;6.15;;;4.53;;
38240;SDS011;24037;49.536;8.500;2023-06-10T09:20:34;7.38;;;4.53;;
38240;SDS011;24037;49.536;8.500;2023-06-10T09:23:01;7.43;;;4.13;;
38240;SDS011;24037;49.536;8.500;2023-06-10T09:25:37;7.95;;;4.75;;
38240;SDS011;24037;49.536;8.500;2023-06-10T09:28:05;6.35;;;4.60;;
38240;SDS011;24037;49.536;8.500;2023-06-10T09:30:39;7.40;;;5.10;;
38240;SDS011;24037;49.536;8.500;2023-06-10T09:33:12;7.32;;;4.90;;
38240;SDS011;24037;49.536;8.500;2023-06-10T09:35:47;5.50;;;4.60;;
38240;SDS011;24037;49.536;8.500;2023-06-10T09:38:19;6.43;;;4.68;;
38240;SDS011;24037;49.536;8.500;2023-06-10T09:40:53;6.65;;;4.75;;
38240;SDS011;24037;49.536;8.500;2023-06-10T09:43:20;7.57;;;5.28;;
38240;SDS011;24037;49.536;8.500;2023-06-10T09:45:50;6.30;;;5.30;;
38240;SDS011;24037;49.536;8.500;2023-06-10T09:48:19;5.15;;;4.38;;
38240;SDS011;24037;49.536;8.500;2023-06-10T09:50:45;6.65;;;4.80;;
38240;SDS011;24037;49.536;8.500;2023-06-10T09:53:12;6.85;;;4.72;;
38240;SDS011;24037;49.536;8.500;2023-06-10T09:55:39;4.43;;;3.95;;
38240;SDS011;24037;49.536;8.500;2023-06-10T09:58:05;7.55;;;4.45;;
38240;SDS011;24037;49.536;8.500;2023-06-10T10:00:31;7.28;;;5.00;;
38240;SDS011;24037;49.536;8.500;2023-06-10T10:02:59;6.45;;;3.78;;
38240;SDS011;24037;49.536;8.500;2023-06-10T10:05:25;6.68;;;3.78;;
38240;SDS011;24037;49.536;8.500;2023-06-10T10:07:52;7.57;;;3.80;;
38240;SDS011;24037;49.536;8.500;2023-06-10T10:10:20;4.60;;;3.47;;
38240;SDS011;24037;49.536;8.500;2023-06-10T10:12:47;6.53;;;3.72;;
38240;SDS011;24037;49.536;8.500;2023-06-10T10:15:16;4.57;;;3.70;;
38240;SDS011;24037;49.536;8.500;2023-06-10T10:17:54;7.53;;;3.47;;
38240;SDS011;24037;49.536;8.500;2023-06-10T10:20:26;3.83;;;3.33;;
38240;SDS011;24037;49.536;8.500;2023-06-10T10:22:57;5.20;;;3.75;;
38240;SDS011;24037;49.536;8.500;2023-06-10T10:25:26;5.00;;;3.50;;
38240;SDS011;24037;49.536;8.500;2023-06-10T10:30:37;3.38;;;2.97;;
38240;SDS011;24037;49.536;8.500;2023-06-10T10:33:12;4.75;;;3.42;;
38240;SDS011;24037;49.536;8.500;2023-06-10T10:35:43;5.05;;;3.53;;
38240;SDS011;24037;49.536;8.500;2023-06-10T10:38:09;3.35;;;3.05;;
38240;SDS011;24037;49.536;8.500;2023-06-10T10:40:35;3.47;;;2.80;;
38240;SDS011;24037;49.536;8.500;2023-06-10T10:43:03;4.63;;;3.55;;
38240;SDS011;24037;49.536;8.500;2023-06-10T10:45:30;5.30;;;3.25;;
38240;SDS011;24037;49.536;8.500;2023-06-10T10:47:56;3.63;;;2.90;;
38240;SDS011;24037;49.536;8.500;2023-06-10T10:50:23;12.32;;;3.33;;
38240;SDS011;24037;49.536;8.500;2023-06-10T10:52:56;4.30;;;2.80;;
38240;SDS011;24037;49.536;8.500;2023-06-10T10:55:27;3.90;;;2.90;;
38240;SDS011;24037;49.536;8.500;2023-06-10T10:58:02;4.88;;;2.95;;
38240;SDS011;24037;49.536;8.500;2023-06-10T11:00:34;4.32;;;2.95;;
38240;SDS011;24037;49.536;8.500;2023-06-10T11:03:05;7.53;;;3.35;;
38240;SDS011;24037;49.536;8.500;2023-06-10T11:08:04;4.57;;;2.90;;
38240;SDS011;24037;49.536;8.500;2023-06-10T11:10:35;3.53;;;3.03;;
38240;SDS011;24037;49.536;8.500;2023-06-10T11:13:25;3.58;;;2.88;;
38240;SDS011;24037;49.536;8.500;2023-06-10T11:15:56;3.80;;;2.53;;
38240;SDS011;24037;49.536;8.500;2023-06-10T11:18:24;9.18;;;2.75;;
38240;SDS011;24037;49.536;8.500;2023-06-10T11:21:04;3.47;;;2.88;;
38240;SDS011;24037;49.536;8.500;2023-06-10T11:23:32;3.40;;;2.50;;
38240;SDS011;24037;49.536;8.500;2023-06-10T11:31:27;3.30;;;2.70;;
38240;SDS011;24037;49.536;8.500;2023-06-10T11:33:56;4.22;;;2.78;;
38240;SDS011;24037;49.536;8.500;2023-06-10T11:36:27;6.80;;;3.30;;
38240;SDS011;24037;49.536;8.500;2023-06-10T11:39:01;4.13;;;2.80;;
38240;SDS011;24037;49.536;8.500;2023-06-10T11:41:30;5.57;;;2.15;;
38240;SDS011;24037;49.536;8.500;2023-06-10T11:43:58;3.42;;;2.28;;
38240;SDS011;24037;49.536;8.500;2023-06-10T11:46:28;4.38;;;2.67;;
38240;SDS011;24037;49.536;8.500;2023-06-10T11:48:55;3.47;;;2.42;;
38240;SDS011;24037;49.536;8.500;2023-06-10T11:51:26;3.85;;;2.63;;
38240;SDS011;24037;49.536;8.500;2023-06-10T11:53:58;3.03;;;2.17;;
38240;SDS011;24037;49.536;8.500;2023-06-10T11:56:25;3.28;;;2.97;;
38240;SDS011;24037;49.536;8.500;2023-06-10T11:58:53;4.25;;;2.38;;
38240;SDS011;24037;49.536;8.500;2023-06-10T12:01:23;2.78;;;2.20;;
38240;SDS011;24037;49.536;8.500;2023-06-10T12:04:04;3.92;;;2.10;;
38240;SDS011;24037;49.536;8.500;2023-06-10T12:06:45;3.60;;;3.03;;
38240;SDS011;24037;49.536;8.500;2023-06-10T12:09:28;4.78;;;2.50;;
38240;SDS011;24037;49.536;8.500;2023-06-10T12:12:04;2.80;;;2.15;;
38240;SDS011;24037;49.536;8.500;2023-06-10T12:17:49;3.80;;;2.30;;
38240;SDS011;24037;49.536;8.500;2023-06-10T12:20:28;4.10;;;3.05;;
38240;SDS011;24037;49.536;8.500;2023-06-10T12:22:55;2.90;;;2.47;;
38240;SDS011;24037;49.536;8.500;2023-06-10T12:25:25;10.98;;;3.28;;
38240;SDS011;24037;49.536;8.500;2023-06-10T12:27:53;5.07;;;2.50;;
38240;SDS011;24037;49.536;8.500;2023-06-10T12:30:22;4.63;;;3.10;;
38240;SDS011;24037;49.536;8.500;2023-06-10T12:32:50;4.18;;;3.10;;
38240;SDS011;24037;49.536;8.500;2023-06-10T12:35:18;4.22;;;3.08;;
38240;SDS011;24037;49.536;8.500;2023-06-10T12:38:04;4.85;;;3.00;;
38240;SDS011;24037;49.536;8.500;2023-06-10T12:40:34;3.60;;;2.72;;
38240;SDS011;24037;49.536;8.500;2023-06-10T12:43:06;3.22;;;2.67;;
38240;SDS011;24037;49.536;8.500;2023-06-10T12:45:33;2.85;;;2.13;;
38240;SDS011;24037;49.536;8.500;2023-06-10T12:48:04;6.40;;;2.88;;
38240;SDS011;24037;49.536;8.500;2023-06-10T12:50:31;4.07;;;2.47;;
38240;SDS011;24037;49.536;8.500;2023-06-10T12:52:59;3.47;;;2.38;;
38240;SDS011;24037;49.536;8.500;2023-06-10T12:55:26;4.15;;;2.47;;
38240;SDS011;24037;49.536;8.500;2023-06-10T12:57:52;3.30;;;2.65;;
38240;SDS011;24037;49.536;8.500;2023-06-10T13:00:18;3.53;;;2.65;;
38240;SDS011;24037;49.536;8.500;2023-06-10T13:02:45;4.30;;;2.92;;
38240;SDS011;24037;49.536;8.500;2023-06-10T13:05:11;3.47;;;2.55;;
38240;SDS011;24037;49.536;8.500;2023-06-10T13:07:37;5.07;;;2.53;;
38240;SDS011;24037;49.536;8.500;2023-06-10T13:10:03;3.03;;;2.70;;
38240;SDS011;24037;49.536;8.500;2023-06-10T13:12:29;4.45;;;3.30;;
38240;SDS011;24037;49.536;8.500;2023-06-10T13:14:56;6.75;;;2.95;;
38240;SDS011;24037;49.536;8.500;2023-06-10T13:17:22;3.15;;;2.75;;
38240;SDS011;24037;49.536;8.500;2023-06-10T13:19:49;4.57;;;2.80;;
38240;SDS011;24037;49.536;8.500;2023-06-10T13:22:16;5.93;;;2.50;;
38240;SDS011;24037;49.536;8.500;2023-06-10T13:24:43;2.70;;;2.30;;
38240;SDS011;24037;49.536;8.500;2023-06-10T13:27:09;3.63;;;2.40;;
38240;SDS011;24037;49.536;8.500;2023-06-10T13:29:36;4.78;;;3.22;;
38240;SDS011;24037;49.536;8.500;2023-06-10T13:32:02;3.42;;;2.97;;
38240;SDS011;24037;49.536;8.500;2023-06-10T13:34:28;3.17;;;2.47;;
38240;SDS011;24037;49.536;8.500;2023-06-10T13:36:54;3.33;;;2.70;;
38240;SDS011;24037;49.536;8.500;2023-06-10T13:39:21;3.20;;;2.78;;
38240;SDS011;24037;49.536;8.500;2023-06-10T13:41:47;4.60;;;2.25;;
38240;SDS011;24037;49.536;8.500;2023-06-10T13:44:13;2.83;;;2.55;;
38240;SDS011;24037;49.536;8.500;2023-06-10T13:46:39;2.78;;;2.20;;
38240;SDS011;24037;49.536;8.500;2023-06-10T13:49:05;4.32;;;2.55;;
38240;SDS011;24037;49.536;8.500;2023-06-10T13:51:31;3.78;;;2.80;;
38240;SDS011;24037;49.536;8.500;2023-06-10T13:53:57;4.20;;;2.83;;
38240;SDS011;24037;49.536;8.500;2023-06-10T13:56:24;4.68;;;3.00;;
38240;SDS011;24037;49.536;8.500;2023-06-10T13:58:50;3.95;;;2.83;;
38240;SDS011;24037;49.536;8.500;2023-06-10T14:01:17;4.75;;;2.45;;
38240;SDS011;24037;49.536;8.500;2023-06-10T14:03:43;3.75;;;2.38;;
38240;SDS011;24037;49.536;8.500;2023-06-10T14:06:09;3.83;;;2.50;;
38240;SDS011;24037;49.536;8.500;2023-06-10T14:08:38;3.20;;;2.35;;
38240;SDS011;24037;49.536;8.500;2023-06-10T14:11:05;5.15;;;2.50;;
38240;SDS011;24037;49.536;8.500;2023-06-10T14:13:31;2.60;;;2.25;;
38240;SDS011;24037;49.536;8.500;2023-06-10T14:15:59;3.00;;;2.53;;
38240;SDS011;24037;49.536;8.500;2023-06-10T14:18:28;3.60;;;2.80;;
38240;SDS011;24037;49.536;8.500;2023-06-10T14:20:54;3.20;;;2.67;;
38240;SDS011;24037;49.536;8.500;2023-06-10T14:23:20;3.28;;;2.75;;
38240;SDS011;24037;49.536;8.500;2023-06-10T14:25:46;3.72;;;2.45;;
38240;SDS011;24037;49.536;8.500;2023-06-10T14:28:13;3.35;;;2.80;;
38240;SDS011;24037;49.536;8.500;2023-06-10T14:30:39;3.38;;;2.60;;
38240;SDS011;24037;49.536;8.500;2023-06-10T14:33:05;3.08;;;2.28;;
38240;SDS011;24037;49.536;8.500;2023-06-10T14:35:31;2.90;;;2.10;;
38240;SDS011;24037;49.536;8.500;2023-06-10T14:37:57;3.65;;;2.67;;
38240;SDS011;24037;49.536;8.500;2023-06-10T14:40:24;4.25;;;2.70;;
38240;SDS011;24037;49.536;8.500;2023-06-10T14:42:52;3.17;;;2.25;;
38240;SDS011;24037;49.536;8.500;2023-06-10T14:45:18;3.33;;;2.55;;
38240;SDS011;24037;49.536;8.500;2023-06-10T14:47:44;4.43;;;2.35;;
38240;SDS011;24037;49.536;8.500;2023-06-10T14:50:11;3.33;;;2.55;;
38240;SDS011;24037;49.536;8.500;2023-06-10T14:52:37;3.35;;;2.22;;
38240;SDS011;24037;49.536;8.500;2023-06-10T14:55:03;5.10;;;2.67;;
38240;SDS011;24037;49.536;8.500;2023-06-10T14:57:29;4.50;;;2.88;;
38240;SDS011;24037;49.536;8.500;2023-06-10T14:59:56;9.27;;;2.78;;
38240;SDS011;24037;49.536;8.500;2023-06-10T15:02:22;3.53;;;2.63;;
38240;SDS011;24037;49.536;8.500;2023-06-10T15:04:49;6.60;;;2.50;;
38240;SDS011;24037;49.536;8.500;2023-06-10T15:07:15;4.80;;;2.75;;
38240;SDS011;24037;49.536;8.500;2023-06-10T15:09:41;7.50;;;2.83;;
38240;SDS011;24037;49.536;8.500;2023-06-10T15:12:07;3.97;;;2.60;;
38240;SDS011;24037;49.536;8.500;2023-06-10T15:14:34;3.42;;;2.72;;
38240;SDS011;24037;49.536;8.500;2023-06-10T15:17:00;5.53;;;2.72;;